Casterton, Victoria

10:01 PM AEST on August 30, 2015 (GMT +1000)
Mount Gambier | | Change Station
CLOSE
Current Station
Airport
Location: Mount Gambier Airport,
Elevation: 210 ft
Nearby Weather Stations

Elev 210 ft 37.75 °S, 140.79 °E | Updated 1 hour ago

Overcast
Overcast
43 °F
Feels Like 43 °F
N
0
Wind Variable Wind from North

Today
High -- | Low -- °F
--% Chance of Precip.
Yesterday
High -- | Low -- °F
Precip. -- in
6:59 AM 6:11 PM
Full, 99% visible
Pressure 30.24 in
Visibility 6.2 miles
Clouds Overcast 3600 ft
Dew Point 41 °F
Humidity 93%
Rainfall 0.00 in
Snow Depth Not available.
UV 0 out of 12
Pollen Not available.
Air Quality Not available.
Flu Activity Not available.
METAR YMTG 301100Z AUTO 00000KT 9999 // OVC036 06/05 Q1024
Pressure 30.24 in
Visibility 6.2 miles
Clouds Overcast 3600 ft
Dew Point 41 °F
Humidity 93%
Rainfall 0.00 in
Snow Depth Not available.
UV 0 out of 12
Pollen Not available.
Air Quality Not available.
Flu Activity Not available.
METAR YMTG 301100Z AUTO 00000KT 9999 // OVC036 06/05 Q1024

10-Day Weather Forecast

×

Almanac

Astronomy

Aug. 30, 2015 Rise Set
Actual Time
Civil Twilight
Nautical Twilight
Astronomical Twilight
Moon
Length of Visible Light
Length of Day
Tomorrow will be .
, % of the Moon is Illuminated

Today's Extremes

Country Highs Country Lows

Community

WunderPhotos

Upload Photos

1,850,934 photos uploaded!

WunderBlogs® & News

Nearby

Air Quality

  Air Quality AQ Index Pollutant
Not available.

Snow Depth

Station Depth Elevation

Earthquake Activity

City Distance Mag. Time & Date
Minimum magnitude displayed is 2.5.

Coastal Water Temperatures

Place Temperature

Stations

Nearby Weather Stations

Station Location Temp. Windchill Dew Point Humidity Wind Precip. Elev Updated Type